sensor_id;sensor_type;location;lat;lon;timestamp;P1;durP1;ratioP1;P2;durP2;ratioP2
31368;SDS011;18004;48.416;10.066;2023-11-22T00:00:40;9.63;;;4.50;;
31368;SDS011;18004;48.416;10.066;2023-11-22T00:03:06;5.60;;;4.15;;
31368;SDS011;18004;48.416;10.066;2023-11-22T00:05:32;6.95;;;3.80;;
31368;SDS011;18004;48.416;10.066;2023-11-22T00:07:58;6.05;;;3.88;;
31368;SDS011;18004;48.416;10.066;2023-11-22T00:10:24;6.50;;;4.18;;
31368;SDS011;18004;48.416;10.066;2023-11-22T00:12:49;5.40;;;3.47;;
31368;SDS011;18004;48.416;10.066;2023-11-22T00:15:15;6.60;;;4.10;;
31368;SDS011;18004;48.416;10.066;2023-11-22T00:17:46;7.82;;;4.05;;
31368;SDS011;18004;48.416;10.066;2023-11-22T00:20:12;8.70;;;3.80;;
31368;SDS011;18004;48.416;10.066;2023-11-22T00:22:38;9.50;;;4.47;;
31368;SDS011;18004;48.416;10.066;2023-11-22T00:25:05;5.85;;;3.40;;
31368;SDS011;18004;48.416;10.066;2023-11-22T00:27:31;7.90;;;4.15;;
31368;SDS011;18004;48.416;10.066;2023-11-22T00:29:57;6.28;;;3.88;;
31368;SDS011;18004;48.416;10.066;2023-11-22T00:32:23;6.70;;;4.00;;
31368;SDS011;18004;48.416;10.066;2023-11-22T00:34:51;7.55;;;3.50;;
31368;SDS011;18004;48.416;10.066;2023-11-22T00:37:16;12.18;;;4.25;;
31368;SDS011;18004;48.416;10.066;2023-11-22T00:39:42;4.82;;;3.38;;
31368;SDS011;18004;48.416;10.066;2023-11-22T00:42:08;6.03;;;3.72;;
31368;SDS011;18004;48.416;10.066;2023-11-22T00:44:34;9.27;;;4.50;;
31368;SDS011;18004;48.416;10.066;2023-11-22T00:47:01;6.97;;;3.97;;
31368;SDS011;18004;48.416;10.066;2023-11-22T00:49:27;7.80;;;3.88;;
31368;SDS011;18004;48.416;10.066;2023-11-22T00:51:53;5.10;;;3.50;;
31368;SDS011;18004;48.416;10.066;2023-11-22T00:54:19;4.20;;;3.05;;
31368;SDS011;18004;48.416;10.066;2023-11-22T00:56:45;3.42;;;2.72;;
31368;SDS011;18004;48.416;10.066;2023-11-22T00:59:11;4.03;;;2.88;;
31368;SDS011;18004;48.416;10.066;2023-11-22T01:01:39;4.90;;;3.15;;
31368;SDS011;18004;48.416;10.066;2023-11-22T01:04:06;5.45;;;3.33;;
31368;SDS011;18004;48.416;10.066;2023-11-22T01:06:32;4.05;;;2.97;;
31368;SDS011;18004;48.416;10.066;2023-11-22T01:08:59;8.25;;;3.20;;
31368;SDS011;18004;48.416;10.066;2023-11-22T01:11:24;3.35;;;2.22;;
31368;SDS011;18004;48.416;10.066;2023-11-22T01:13:51;4.50;;;2.47;;
31368;SDS011;18004;48.416;10.066;2023-11-22T01:16:17;6.30;;;2.50;;
31368;SDS011;18004;48.416;10.066;2023-11-22T01:18:43;3.40;;;2.45;;
31368;SDS011;18004;48.416;10.066;2023-11-22T01:21:11;3.65;;;2.60;;
31368;SDS011;18004;48.416;10.066;2023-11-22T01:23:37;3.58;;;2.30;;
31368;SDS011;18004;48.416;10.066;2023-11-22T01:26:03;10.25;;;3.13;;
31368;SDS011;18004;48.416;10.066;2023-11-22T01:28:30;5.72;;;3.15;;
31368;SDS011;18004;48.416;10.066;2023-11-22T01:30:59;4.18;;;3.05;;
31368;SDS011;18004;48.416;10.066;2023-11-22T01:33:27;4.53;;;2.50;;
31368;SDS011;18004;48.416;10.066;2023-11-22T01:35:53;4.40;;;1.90;;
31368;SDS011;18004;48.416;10.066;2023-11-22T01:38:19;2.13;;;1.60;;
31368;SDS011;18004;48.416;10.066;2023-11-22T01:40:45;1.38;;;1.15;;
31368;SDS011;18004;48.416;10.066;2023-11-22T01:43:16;4.78;;;1.48;;
31368;SDS011;18004;48.416;10.066;2023-11-22T01:45:42;1.02;;;0.80;;
31368;SDS011;18004;48.416;10.066;2023-11-22T01:48:10;2.55;;;1.40;;
31368;SDS011;18004;48.416;10.066;2023-11-22T01:50:37;2.60;;;1.52;;
31368;SDS011;18004;48.416;10.066;2023-11-22T01:53:08;3.50;;;2.10;;
31368;SDS011;18004;48.416;10.066;2023-11-22T01:55:37;1.80;;;1.23;;
31368;SDS011;18004;48.416;10.066;2023-11-22T01:58:09;2.15;;;1.45;;
31368;SDS011;18004;48.416;10.066;2023-11-22T02:00:42;4.78;;;2.60;;
31368;SDS011;18004;48.416;10.066;2023-11-22T02:03:13;3.03;;;1.95;;
31368;SDS011;18004;48.416;10.066;2023-11-22T02:05:40;3.72;;;1.98;;
31368;SDS011;18004;48.416;10.066;2023-11-22T02:08:08;4.50;;;1.80;;
31368;SDS011;18004;48.416;10.066;2023-11-22T02:10:35;2.30;;;1.83;;
31368;SDS011;18004;48.416;10.066;2023-11-22T02:13:05;2.50;;;1.90;;
31368;SDS011;18004;48.416;10.066;2023-11-22T02:15:33;1.60;;;1.30;;
31368;SDS011;18004;48.416;10.066;2023-11-22T02:17:59;2.15;;;1.63;;
31368;SDS011;18004;48.416;10.066;2023-11-22T02:20:26;1.42;;;1.15;;
31368;SDS011;18004;48.416;10.066;2023-11-22T02:23:03;3.53;;;1.95;;
31368;SDS011;18004;48.416;10.066;2023-11-22T02:25:34;4.25;;;2.30;;
31368;SDS011;18004;48.416;10.066;2023-11-22T02:28:01;4.28;;;2.00;;
31368;SDS011;18004;48.416;10.066;2023-11-22T02:30:27;2.13;;;1.48;;
31368;SDS011;18004;48.416;10.066;2023-11-22T02:32:53;1.48;;;0.88;;
31368;SDS011;18004;48.416;10.066;2023-11-22T02:35:19;2.20;;;1.30;;
31368;SDS011;18004;48.416;10.066;2023-11-22T02:37:46;2.10;;;1.58;;
31368;SDS011;18004;48.416;10.066;2023-11-22T02:40:20;1.80;;;1.38;;
31368;SDS011;18004;48.416;10.066;2023-11-22T02:42:47;2.85;;;1.80;;
31368;SDS011;18004;48.416;10.066;2023-11-22T02:45:14;4.45;;;2.03;;
31368;SDS011;18004;48.416;10.066;2023-11-22T02:47:44;2.72;;;1.58;;
31368;SDS011;18004;48.416;10.066;2023-11-22T02:50:14;2.92;;;1.58;;
31368;SDS011;18004;48.416;10.066;2023-11-22T02:52:40;0.60;;;0.57;;
31368;SDS011;18004;48.416;10.066;2023-11-22T02:55:07;3.20;;;1.65;;
31368;SDS011;18004;48.416;10.066;2023-11-22T02:57:36;4.60;;;0.90;;
31368;SDS011;18004;48.416;10.066;2023-11-22T03:00:06;1.83;;;1.15;;
31368;SDS011;18004;48.416;10.066;2023-11-22T03:02:40;1.02;;;0.73;;
31368;SDS011;18004;48.416;10.066;2023-11-22T03:05:08;1.27;;;0.70;;
31368;SDS011;18004;48.416;10.066;2023-11-22T03:07:35;0.68;;;0.65;;
31368;SDS011;18004;48.416;10.066;2023-11-22T03:10:01;2.13;;;1.10;;
31368;SDS011;18004;48.416;10.066;2023-11-22T03:12:28;1.05;;;0.80;;
31368;SDS011;18004;48.416;10.066;2023-11-22T03:14:53;0.95;;;0.90;;
31368;SDS011;18004;48.416;10.066;2023-11-22T03:17:28;2.05;;;1.13;;
31368;SDS011;18004;48.416;10.066;2023-11-22T03:19:55;1.50;;;1.10;;
31368;SDS011;18004;48.416;10.066;2023-11-22T03:22:28;1.85;;;1.38;;
31368;SDS011;18004;48.416;10.066;2023-11-22T03:24:55;2.20;;;1.25;;
31368;SDS011;18004;48.416;10.066;2023-11-22T03:27:21;2.30;;;1.60;;
31368;SDS011;18004;48.416;10.066;2023-11-22T03:29:48;2.35;;;1.60;;
31368;SDS011;18004;48.416;10.066;2023-11-22T03:32:14;3.05;;;1.88;;
31368;SDS011;18004;48.416;10.066;2023-11-22T03:34:40;3.63;;;1.85;;
31368;SDS011;18004;48.416;10.066;2023-11-22T03:37:05;2.33;;;1.58;;
31368;SDS011;18004;48.416;10.066;2023-11-22T03:39:32;3.97;;;2.03;;
31368;SDS011;18004;48.416;10.066;2023-11-22T03:41:58;2.50;;;1.63;;
31368;SDS011;18004;48.416;10.066;2023-11-22T03:44:24;3.15;;;1.38;;
31368;SDS011;18004;48.416;10.066;2023-11-22T03:46:49;2.20;;;1.60;;
31368;SDS011;18004;48.416;10.066;2023-11-22T03:49:16;4.65;;;2.08;;
31368;SDS011;18004;48.416;10.066;2023-11-22T03:51:42;3.83;;;2.13;;
31368;SDS011;18004;48.416;10.066;2023-11-22T03:54:08;3.83;;;1.92;;
31368;SDS011;18004;48.416;10.066;2023-11-22T03:56:36;3.05;;;2.00;;
31368;SDS011;18004;48.416;10.066;2023-11-22T03:59:02;2.90;;;1.63;;
31368;SDS011;18004;48.416;10.066;2023-11-22T04:01:28;4.85;;;1.80;;
31368;SDS011;18004;48.416;10.066;2023-11-22T04:03:54;3.33;;;2.00;;
31368;SDS011;18004;48.416;10.066;2023-11-22T04:06:20;4.47;;;2.17;;
31368;SDS011;18004;48.416;10.066;2023-11-22T04:08:47;2.42;;;2.00;;
31368;SDS011;18004;48.416;10.066;2023-11-22T04:11:13;2.75;;;2.05;;
31368;SDS011;18004;48.416;10.066;2023-11-22T04:13:39;2.42;;;1.65;;
31368;SDS011;18004;48.416;10.066;2023-11-22T04:16:05;3.85;;;1.98;;
31368;SDS011;18004;48.416;10.066;2023-11-22T04:18:37;3.35;;;1.98;;
31368;SDS011;18004;48.416;10.066;2023-11-22T04:21:04;3.20;;;2.13;;
31368;SDS011;18004;48.416;10.066;2023-11-22T04:23:30;4.15;;;2.65;;
31368;SDS011;18004;48.416;10.066;2023-11-22T04:25:58;2.67;;;1.90;;
31368;SDS011;18004;48.416;10.066;2023-11-22T04:28:25;5.95;;;2.72;;
31368;SDS011;18004;48.416;10.066;2023-11-22T04:30:51;5.32;;;2.13;;
31368;SDS011;18004;48.416;10.066;2023-11-22T04:33:18;4.38;;;2.40;;
31368;SDS011;18004;48.416;10.066;2023-11-22T04:35:44;4.75;;;3.05;;
31368;SDS011;18004;48.416;10.066;2023-11-22T04:38:10;2.08;;;1.48;;
31368;SDS011;18004;48.416;10.066;2023-11-22T04:40:36;4.32;;;2.88;;
31368;SDS011;18004;48.416;10.066;2023-11-22T04:43:02;3.30;;;2.65;;
31368;SDS011;18004;48.416;10.066;2023-11-22T04:45:28;9.07;;;4.78;;
31368;SDS011;18004;48.416;10.066;2023-11-22T04:47:53;8.35;;;3.97;;
31368;SDS011;18004;48.416;10.066;2023-11-22T04:50:22;13.35;;;7.88;;
31368;SDS011;18004;48.416;10.066;2023-11-22T04:52:49;11.10;;;7.25;;
31368;SDS011;18004;48.416;10.066;2023-11-22T04:55:15;10.82;;;5.95;;
31368;SDS011;18004;48.416;10.066;2023-11-22T04:57:41;10.00;;;5.13;;
31368;SDS011;18004;48.416;10.066;2023-11-22T05:00:07;9.15;;;6.65;;
31368;SDS011;18004;48.416;10.066;2023-11-22T05:02:34;11.77;;;5.30;;
31368;SDS011;18004;48.416;10.066;2023-11-22T05:05:00;4.25;;;2.92;;
31368;SDS011;18004;48.416;10.066;2023-11-22T05:07:25;3.90;;;2.30;;
31368;SDS011;18004;48.416;10.066;2023-11-22T05:09:51;6.47;;;3.92;;
31368;SDS011;18004;48.416;10.066;2023-11-22T05:12:17;6.38;;;3.67;;
31368;SDS011;18004;48.416;10.066;2023-11-22T05:14:43;5.90;;;3.00;;
31368;SDS011;18004;48.416;10.066;2023-11-22T05:17:10;6.65;;;4.25;;
31368;SDS011;18004;48.416;10.066;2023-11-22T05:19:37;9.77;;;4.75;;
31368;SDS011;18004;48.416;10.066;2023-11-22T05:22:03;8.77;;;5.20;;
31368;SDS011;18004;48.416;10.066;2023-11-22T05:24:30;3.35;;;2.33;;
31368;SDS011;18004;48.416;10.066;2023-11-22T05:26:56;7.72;;;3.67;;
31368;SDS011;18004;48.416;10.066;2023-11-22T05:29:22;7.25;;;3.78;;
31368;SDS011;18004;48.416;10.066;2023-11-22T05:31:50;12.35;;;3.67;;
31368;SDS011;18004;48.416;10.066;2023-11-22T05:41:07;8.27;;;4.00;;
31368;SDS011;18004;48.416;10.066;2023-11-22T05:44:43;3.65;;;2.92;;
31368;SDS011;18004;48.416;10.066;2023-11-22T05:48:16;7.13;;;3.97;;
31368;SDS011;18004;48.416;10.066;2023-11-22T05:50:43;11.57;;;4.60;;
31368;SDS011;18004;48.416;10.066;2023-11-22T05:53:30;6.07;;;3.38;;
31368;SDS011;18004;48.416;10.066;2023-11-22T05:55:59;8.57;;;4.78;;
31368;SDS011;18004;48.416;10.066;2023-11-22T05:58:25;8.05;;;4.55;;
31368;SDS011;18004;48.416;10.066;2023-11-22T06:00:51;5.95;;;3.33;;
31368;SDS011;18004;48.416;10.066;2023-11-22T06:06:39;5.63;;;3.35;;
31368;SDS011;18004;48.416;10.066;2023-11-22T06:09:05;6.28;;;3.70;;
31368;SDS011;18004;48.416;10.066;2023-11-22T06:11:32;7.60;;;4.07;;
31368;SDS011;18004;48.416;10.066;2023-11-22T06:14:01;6.35;;;3.97;;
31368;SDS011;18004;48.416;10.066;2023-11-22T06:16:27;6.38;;;3.70;;
31368;SDS011;18004;48.416;10.066;2023-11-22T06:18:59;8.65;;;4.13;;
31368;SDS011;18004;48.416;10.066;2023-11-22T06:21:25;4.28;;;2.60;;
31368;SDS011;18004;48.416;10.066;2023-11-22T06:33:26;9.43;;;3.38;;
31368;SDS011;18004;48.416;10.066;2023-11-22T06:36:02;4.35;;;2.63;;
31368;SDS011;18004;48.416;10.066;2023-11-22T06:39:34;7.07;;;3.42;;
31368;SDS011;18004;48.416;10.066;2023-11-22T06:42:00;6.28;;;3.17;;
31368;SDS011;18004;48.416;10.066;2023-11-22T06:44:32;7.60;;;3.47;;
31368;SDS011;18004;48.416;10.066;2023-11-22T06:46:58;5.53;;;3.35;;
31368;SDS011;18004;48.416;10.066;2023-11-22T06:49:24;4.38;;;2.80;;
31368;SDS011;18004;48.416;10.066;2023-11-22T06:51:50;5.22;;;2.42;;
31368;SDS011;18004;48.416;10.066;2023-11-22T06:54:18;3.33;;;2.10;;
31368;SDS011;18004;48.416;10.066;2023-11-22T06:59:59;1.35;;;0.93;;
31368;SDS011;18004;48.416;10.066;2023-11-22T07:03:37;4.28;;;2.05;;
31368;SDS011;18004;48.416;10.066;2023-11-22T07:09:48;2.20;;;1.55;;
31368;SDS011;18004;48.416;10.066;2023-11-22T07:12:18;1.58;;;1.48;;
31368;SDS011;18004;48.416;10.066;2023-11-22T07:14:50;3.17;;;1.92;;
31368;SDS011;18004;48.416;10.066;2023-11-22T07:17:16;1.95;;;1.55;;
31368;SDS011;18004;48.416;10.066;2023-11-22T07:19:43;2.50;;;2.00;;
31368;SDS011;18004;48.416;10.066;2023-11-22T07:22:12;3.13;;;1.92;;
31368;SDS011;18004;48.416;10.066;2023-11-22T07:24:44;3.38;;;1.95;;
31368;SDS011;18004;48.416;10.066;2023-11-22T07:27:12;4.05;;;2.17;;
31368;SDS011;18004;48.416;10.066;2023-11-22T07:29:42;5.35;;;2.30;;
31368;SDS011;18004;48.416;10.066;2023-11-22T07:32:08;2.60;;;1.90;;
31368;SDS011;18004;48.416;10.066;2023-11-22T07:34:35;2.92;;;1.75;;
31368;SDS011;18004;48.416;10.066;2023-11-22T07:37:02;1.92;;;1.48;;
31368;SDS011;18004;48.416;10.066;2023-11-22T07:39:28;1.50;;;1.23;;
31368;SDS011;18004;48.416;10.066;2023-11-22T07:41:54;1.00;;;0.88;;
31368;SDS011;18004;48.416;10.066;2023-11-22T07:44:21;2.50;;;1.55;;
31368;SDS011;18004;48.416;10.066;2023-11-22T07:47:22;1.70;;;1.30;;
31368;SDS011;18004;48.416;10.066;2023-11-22T07:49:50;2.35;;;1.45;;
31368;SDS011;18004;48.416;10.066;2023-11-22T07:52:16;2.33;;;1.73;;
31368;SDS011;18004;48.416;10.066;2023-11-22T07:54:42;3.38;;;1.40;;
31368;SDS011;18004;48.416;10.066;2023-11-22T07:57:09;3.80;;;1.77;;
31368;SDS011;18004;48.416;10.066;2023-11-22T07:59:35;2.70;;;1.50;;
31368;SDS011;18004;48.416;10.066;2023-11-22T08:02:02;1.48;;;1.38;;
31368;SDS011;18004;48.416;10.066;2023-11-22T08:04:37;0.90;;;0.73;;
31368;SDS011;18004;48.416;10.066;2023-11-22T08:07:05;3.47;;;2.05;;
31368;SDS011;18004;48.416;10.066;2023-11-22T08:09:47;1.75;;;1.20;;
31368;SDS011;18004;48.416;10.066;2023-11-22T08:12:19;2.83;;;1.90;;
31368;SDS011;18004;48.416;10.066;2023-11-22T08:14:54;3.08;;;1.95;;
31368;SDS011;18004;48.416;10.066;2023-11-22T08:17:22;2.17;;;1.52;;
31368;SDS011;18004;48.416;10.066;2023-11-22T08:19:51;1.40;;;1.20;;
31368;SDS011;18004;48.416;10.066;2023-11-22T08:22:20;2.58;;;2.00;;
31368;SDS011;18004;48.416;10.066;2023-11-22T08:24:53;8.00;;;3.38;;
31368;SDS011;18004;48.416;10.066;2023-11-22T08:27:20;4.43;;;2.33;;
31368;SDS011;18004;48.416;10.066;2023-11-22T08:29:46;3.00;;;1.80;;
31368;SDS011;18004;48.416;10.066;2023-11-22T08:32:13;2.75;;;1.88;;
31368;SDS011;18004;48.416;10.066;2023-11-22T08:34:39;5.65;;;2.05;;
31368;SDS011;18004;48.416;10.066;2023-11-22T08:37:13;2.83;;;1.65;;
31368;SDS011;18004;48.416;10.066;2023-11-22T08:39:38;2.40;;;1.48;;
31368;SDS011;18004;48.416;10.066;2023-11-22T08:42:04;0.95;;;0.68;;
31368;SDS011;18004;48.416;10.066;2023-11-22T08:44:47;2.60;;;1.60;;
31368;SDS011;18004;48.416;10.066;2023-11-22T08:48:11;2.75;;;2.03;;
31368;SDS011;18004;48.416;10.066;2023-11-22T08:51:01;2.78;;;1.50;;
31368;SDS011;18004;48.416;10.066;2023-11-22T08:53:35;2.42;;;2.13;;
31368;SDS011;18004;48.416;10.066;2023-11-22T08:56:27;9.85;;;2.60;;
31368;SDS011;18004;48.416;10.066;2023-11-22T08:59:00;4.20;;;2.05;;
31368;SDS011;18004;48.416;10.066;2023-11-22T09:01:37;3.28;;;1.90;;
31368;SDS011;18004;48.416;10.066;2023-11-22T09:04:31;4.82;;;1.80;;
31368;SDS011;18004;48.416;10.066;2023-11-22T09:07:45;3.72;;;1.90;;
31368;SDS011;18004;48.416;10.066;2023-11-22T09:13:52;3.60;;;2.00;;
31368;SDS011;18004;48.416;10.066;2023-11-22T09:20:08;1.63;;;1.42;;
31368;SDS011;18004;48.416;10.066;2023-11-22T09:33:48;5.15;;;2.38;;
31368;SDS011;18004;48.416;10.066;2023-11-22T09:36:30;3.53;;;2.20;;
31368;SDS011;18004;48.416;10.066;2023-11-22T09:50:21;2.90;;;2.10;;
31368;SDS011;18004;48.416;10.066;2023-11-22T09:53:40;3.33;;;1.83;;
31368;SDS011;18004;48.416;10.066;2023-11-22T09:56:14;2.60;;;2.13;;
31368;SDS011;18004;48.416;10.066;2023-11-22T10:08:50;2.22;;;1.85;;
31368;SDS011;18004;48.416;10.066;2023-11-22T10:15:13;4.03;;;2.38;;
31368;SDS011;18004;48.416;10.066;2023-11-22T10:17:50;4.03;;;2.65;;
31368;SDS011;18004;48.416;10.066;2023-11-22T10:20:44;5.05;;;2.90;;
31368;SDS011;18004;48.416;10.066;2023-11-22T10:23:14;5.28;;;2.80;;
31368;SDS011;18004;48.416;10.066;2023-11-22T10:33:27;3.63;;;2.63;;
31368;SDS011;18004;48.416;10.066;2023-11-22T10:36:05;3.38;;;2.10;;
31368;SDS011;18004;48.416;10.066;2023-11-22T10:38:33;4.35;;;2.58;;
31368;SDS011;18004;48.416;10.066;2023-11-22T10:41:03;4.00;;;2.42;;
31368;SDS011;18004;48.416;10.066;2023-11-22T10:43:33;5.50;;;2.97;;
31368;SDS011;18004;48.416;10.066;2023-11-22T10:46:03;4.70;;;2.63;;
31368;SDS011;18004;48.416;10.066;2023-11-22T10:48:34;6.05;;;3.05;;
31368;SDS011;18004;48.416;10.066;2023-11-22T10:51:01;2.80;;;2.40;;
31368;SDS011;18004;48.416;10.066;2023-11-22T10:53:35;3.15;;;2.13;;
31368;SDS011;18004;48.416;10.066;2023-11-22T10:59:26;3.20;;;2.50;;
31368;SDS011;18004;48.416;10.066;2023-11-22T11:05:27;5.78;;;2.78;;
31368;SDS011;18004;48.416;10.066;2023-11-22T11:08:05;2.95;;;2.20;;
31368;SDS011;18004;48.416;10.066;2023-11-22T11:10:42;3.35;;;2.50;;
31368;SDS011;18004;48.416;10.066;2023-11-22T11:13:10;6.28;;;2.20;;
31368;SDS011;18004;48.416;10.066;2023-11-22T11:15:36;3.15;;;2.30;;
31368;SDS011;18004;48.416;10.066;2023-11-22T11:18:04;4.22;;;2.58;;
31368;SDS011;18004;48.416;10.066;2023-11-22T11:23:43;4.63;;;2.03;;
31368;SDS011;18004;48.416;10.066;2023-11-22T11:26:33;11.27;;;2.70;;
31368;SDS011;18004;48.416;10.066;2023-11-22T11:29:28;3.78;;;2.85;;
31368;SDS011;18004;48.416;10.066;2023-11-22T11:32:10;7.13;;;3.30;;
31368;SDS011;18004;48.416;10.066;2023-11-22T11:38:20;4.75;;;2.47;;
31368;SDS011;18004;48.416;10.066;2023-11-22T11:41:18;3.83;;;2.03;;
31368;SDS011;18004;48.416;10.066;2023-11-22T11:43:58;3.45;;;2.10;;
31368;SDS011;18004;48.416;10.066;2023-11-22T11:49:38;2.78;;;1.60;;
31368;SDS011;18004;48.416;10.066;2023-11-22T11:52:16;3.17;;;2.05;;
31368;SDS011;18004;48.416;10.066;2023-11-22T11:54:52;5.88;;;2.60;;
31368;SDS011;18004;48.416;10.066;2023-11-22T11:57:42;2.85;;;1.92;;
31368;SDS011;18004;48.416;10.066;2023-11-22T12:00:14;2.40;;;1.70;;
31368;SDS011;18004;48.416;10.066;2023-11-22T12:02:40;5.20;;;2.30;;
31368;SDS011;18004;48.416;10.066;2023-11-22T12:05:09;2.03;;;1.65;;
31368;SDS011;18004;48.416;10.066;2023-11-22T12:07:35;7.25;;;2.33;;
31368;SDS011;18004;48.416;10.066;2023-11-22T12:10:02;3.20;;;2.03;;
31368;SDS011;18004;48.416;10.066;2023-11-22T12:12:34;4.20;;;1.98;;
31368;SDS011;18004;48.416;10.066;2023-11-22T12:15:04;3.65;;;2.03;;
31368;SDS011;18004;48.416;10.066;2023-11-22T12:17:33;5.72;;;2.95;;
31368;SDS011;18004;48.416;10.066;2023-11-22T12:20:13;5.45;;;2.58;;
31368;SDS011;18004;48.416;10.066;2023-11-22T12:22:52;6.38;;;2.47;;
31368;SDS011;18004;48.416;10.066;2023-11-22T12:26:00;4.88;;;2.78;;
31368;SDS011;18004;48.416;10.066;2023-11-22T12:28:27;4.03;;;2.22;;
31368;SDS011;18004;48.416;10.066;2023-11-22T12:31:05;3.28;;;2.15;;
31368;SDS011;18004;48.416;10.066;2023-11-22T12:33:41;4.25;;;2.25;;
31368;SDS011;18004;48.416;10.066;2023-11-22T12:36:08;4.85;;;2.30;;
31368;SDS011;18004;48.416;10.066;2023-11-22T12:38:42;3.55;;;2.30;;
31368;SDS011;18004;48.416;10.066;2023-11-22T12:41:08;2.78;;;1.90;;
31368;SDS011;18004;48.416;10.066;2023-11-22T12:43:34;4.13;;;2.42;;
31368;SDS011;18004;48.416;10.066;2023-11-22T12:46:01;4.65;;;2.10;;
31368;SDS011;18004;48.416;10.066;2023-11-22T12:48:27;3.95;;;2.60;;
31368;SDS011;18004;48.416;10.066;2023-11-22T12:50:57;5.25;;;3.13;;
31368;SDS011;18004;48.416;10.066;2023-11-22T12:53:24;9.48;;;2.50;;
31368;SDS011;18004;48.416;10.066;2023-11-22T12:55:53;4.97;;;2.80;;
31368;SDS011;18004;48.416;10.066;2023-11-22T12:58:20;6.18;;;2.50;;
31368;SDS011;18004;48.416;10.066;2023-11-22T13:00:48;4.22;;;2.22;;
31368;SDS011;18004;48.416;10.066;2023-11-22T13:03:16;3.25;;;2.35;;
31368;SDS011;18004;48.416;10.066;2023-11-22T13:05:52;6.03;;;2.30;;
31368;SDS011;18004;48.416;10.066;2023-11-22T13:08:34;3.88;;;2.78;;
31368;SDS011;18004;48.416;10.066;2023-11-22T13:11:06;3.83;;;2.85;;
31368;SDS011;18004;48.416;10.066;2023-11-22T13:18:02;4.90;;;2.75;;
31368;SDS011;18004;48.416;10.066;2023-11-22T13:20:31;6.82;;;2.67;;
31368;SDS011;18004;48.416;10.066;2023-11-22T13:22:58;5.97;;;2.92;;
31368;SDS011;18004;48.416;10.066;2023-11-22T13:25:25;7.93;;;3.67;;
31368;SDS011;18004;48.416;10.066;2023-11-22T13:27:51;12.98;;;6.18;;
31368;SDS011;18004;48.416;10.066;2023-11-22T13:30:18;11.07;;;4.18;;
31368;SDS011;18004;48.416;10.066;2023-11-22T13:32:50;4.75;;;3.17;;
31368;SDS011;18004;48.416;10.066;2023-11-22T13:35:17;5.32;;;3.20;;
31368;SDS011;18004;48.416;10.066;2023-11-22T13:37:44;5.57;;;3.60;;
31368;SDS011;18004;48.416;10.066;2023-11-22T13:40:14;4.93;;;2.80;;
31368;SDS011;18004;48.416;10.066;2023-11-22T13:42:45;5.43;;;3.08;;
31368;SDS011;18004;48.416;10.066;2023-11-22T13:45:13;7.15;;;2.97;;
31368;SDS011;18004;48.416;10.066;2023-11-22T13:47:43;5.32;;;3.08;;
31368;SDS011;18004;48.416;10.066;2023-11-22T13:50:11;5.25;;;2.85;;
31368;SDS011;18004;48.416;10.066;2023-11-22T13:56:30;7.70;;;3.92;;
31368;SDS011;18004;48.416;10.066;2023-11-22T13:58:56;6.97;;;3.67;;
31368;SDS011;18004;48.416;10.066;2023-11-22T14:01:22;6.32;;;3.45;;
31368;SDS011;18004;48.416;10.066;2023-11-22T14:03:48;5.65;;;3.28;;
31368;SDS011;18004;48.416;10.066;2023-11-22T14:06:14;7.97;;;2.67;;
31368;SDS011;18004;48.416;10.066;2023-11-22T14:08:42;6.65;;;3.33;;
31368;SDS011;18004;48.416;10.066;2023-11-22T14:11:10;6.55;;;3.00;;
31368;SDS011;18004;48.416;10.066;2023-11-22T14:13:37;4.68;;;2.88;;
31368;SDS011;18004;48.416;10.066;2023-11-22T14:16:03;6.43;;;3.75;;
31368;SDS011;18004;48.416;10.066;2023-11-22T14:18:32;3.08;;;2.35;;
31368;SDS011;18004;48.416;10.066;2023-11-22T14:21:14;6.30;;;3.30;;
31368;SDS011;18004;48.416;10.066;2023-11-22T14:30:50;5.28;;;3.13;;
31368;SDS011;18004;48.416;10.066;2023-11-22T14:33:43;8.20;;;3.90;;
31368;SDS011;18004;48.416;10.066;2023-11-22T14:36:49;4.10;;;3.05;;
31368;SDS011;18004;48.416;10.066;2023-11-22T14:39:41;4.82;;;3.10;;
31368;SDS011;18004;48.416;10.066;2023-11-22T14:42:07;6.30;;;3.63;;
31368;SDS011;18004;48.416;10.066;2023-11-22T14:44:57;6.13;;;3.05;;
31368;SDS011;18004;48.416;10.066;2023-11-22T14:47:22;4.82;;;3.13;;
31368;SDS011;18004;48.416;10.066;2023-11-22T14:49:52;4.03;;;2.85;;
31368;SDS011;18004;48.416;10.066;2023-11-22T14:52:22;6.45;;;3.03;;
31368;SDS011;18004;48.416;10.066;2023-11-22T14:54:48;5.40;;;3.08;;
31368;SDS011;18004;48.416;10.066;2023-11-22T14:57:15;3.58;;;3.08;;
31368;SDS011;18004;48.416;10.066;2023-11-22T14:59:42;6.47;;;3.90;;
31368;SDS011;18004;48.416;10.066;2023-11-22T15:02:09;7.07;;;3.60;;
31368;SDS011;18004;48.416;10.066;2023-11-22T15:04:37;7.07;;;4.97;;
31368;SDS011;18004;48.416;10.066;2023-11-22T15:13:30;7.13;;;3.55;;
31368;SDS011;18004;48.416;10.066;2023-11-22T15:15:56;8.38;;;3.97;;
31368;SDS011;18004;48.416;10.066;2023-11-22T15:18:22;5.15;;;3.47;;
31368;SDS011;18004;48.416;10.066;2023-11-22T15:20:49;4.78;;;3.35;;
31368;SDS011;18004;48.416;10.066;2023-11-22T15:23:15;4.63;;;3.42;;
31368;SDS011;18004;48.416;10.066;2023-11-22T15:25:41;4.65;;;3.47;;
31368;SDS011;18004;48.416;10.066;2023-11-22T15:28:07;9.50;;;5.22;;
31368;SDS011;18004;48.416;10.066;2023-11-22T15:30:34;11.10;;;4.43;;
31368;SDS011;18004;48.416;10.066;2023-11-22T15:33:00;3.53;;;2.60;;
31368;SDS011;18004;48.416;10.066;2023-11-22T15:35:27;7.00;;;3.17;;
31368;SDS011;18004;48.416;10.066;2023-11-22T15:37:52;5.13;;;3.55;;
31368;SDS011;18004;48.416;10.066;2023-11-22T15:40:18;4.50;;;3.15;;
31368;SDS011;18004;48.416;10.066;2023-11-22T15:42:45;3.17;;;2.72;;
31368;SDS011;18004;48.416;10.066;2023-11-22T15:45:11;5.45;;;2.85;;
31368;SDS011;18004;48.416;10.066;2023-11-22T15:47:38;4.78;;;3.13;;
31368;SDS011;18004;48.416;10.066;2023-11-22T15:50:04;4.53;;;2.83;;
31368;SDS011;18004;48.416;10.066;2023-11-22T15:52:33;6.18;;;3.33;;
31368;SDS011;18004;48.416;10.066;2023-11-22T15:54:59;6.82;;;3.58;;
31368;SDS011;18004;48.416;10.066;2023-11-22T15:57:25;7.45;;;3.95;;
31368;SDS011;18004;48.416;10.066;2023-11-22T15:59:51;5.57;;;3.35;;
31368;SDS011;18004;48.416;10.066;2023-11-22T16:02:52;5.50;;;3.30;;
31368;SDS011;18004;48.416;10.066;2023-11-22T16:05:18;5.30;;;3.33;;
31368;SDS011;18004;48.416;10.066;2023-11-22T16:07:44;6.18;;;3.78;;
31368;SDS011;18004;48.416;10.066;2023-11-22T16:10:10;9.20;;;4.10;;
31368;SDS011;18004;48.416;10.066;2023-11-22T16:12:36;7.43;;;4.03;;
31368;SDS011;18004;48.416;10.066;2023-11-22T16:15:02;6.53;;;4.43;;
31368;SDS011;18004;48.416;10.066;2023-11-22T16:17:28;5.03;;;3.80;;
31368;SDS011;18004;48.416;10.066;2023-11-22T16:19:56;8.13;;;5.20;;
31368;SDS011;18004;48.416;10.066;2023-11-22T16:22:25;8.98;;;4.60;;
31368;SDS011;18004;48.416;10.066;2023-11-22T16:24:52;5.60;;;3.47;;
31368;SDS011;18004;48.416;10.066;2023-11-22T16:27:18;7.20;;;4.32;;
31368;SDS011;18004;48.416;10.066;2023-11-22T16:29:43;9.07;;;4.20;;
31368;SDS011;18004;48.416;10.066;2023-11-22T16:32:12;4.47;;;3.30;;
31368;SDS011;18004;48.416;10.066;2023-11-22T16:34:37;4.90;;;3.28;;
31368;SDS011;18004;48.416;10.066;2023-11-22T16:37:04;6.18;;;3.88;;
31368;SDS011;18004;48.416;10.066;2023-11-22T16:39:29;5.93;;;3.13;;
31368;SDS011;18004;48.416;10.066;2023-11-22T16:41:55;6.45;;;4.05;;
31368;SDS011;18004;48.416;10.066;2023-11-22T16:44:21;4.90;;;2.90;;
31368;SDS011;18004;48.416;10.066;2023-11-22T16:46:47;7.60;;;4.03;;
31368;SDS011;18004;48.416;10.066;2023-11-22T16:49:14;5.95;;;3.47;;